Time;durP1;ratioP1;P1;durP2;ratioP2;P2;SDS_P1;SDS_P2;PMS_P1;PMS_P2;Temp;Humidity;BMP_temperature;BMP_pressure;BME280_temperature;BME280_humidity;BME280_pressure;Samples;Min_cycle;Max_cycle;Signal;HPM_P1;HPM_P2
2023/01/11 00:01:26;;;;;;;0.50;0.50;;;10.20;99.90;;;;;;4985697;28;20492;-88
2023/01/11 00:04:04;;;;;;;0.60;0.60;;;10.20;99.90;;;;;;4977431;28;20439;-89
2023/01/11 00:07:39;;;;;;;0.90;0.70;;;10.30;99.90;;;;;;4996034;28;20594;-86
2023/01/11 00:11:07;;;;;;;;;;;;;;;;;;;;;
2023/01/11 00:14:27;;;;;;;2.97;1.70;;;10.30;99.90;;;;;;4965652;28;20524;-86
2023/01/11 00:17:10;;;;;;;0.70;0.70;;;10.40;99.90;;;;;;4959048;28;20565;-88
2023/01/11 00:20:19;;;;;;;;;;;;;;;;;;;;;
2023/01/11 00:23:06;;;;;;;0.80;0.60;;;10.40;99.90;;;;;;4987939;28;20957;-85
2023/01/11 00:25:54;;;;;;;0.50;0.50;;;10.40;99.90;;;;;;4987702;28;20491;-88
2023/01/11 00:28:51;;;;;;;0.63;0.60;;;10.30;99.90;;;;;;4973897;28;20463;-85
2023/01/11 00:31:38;;;;;;;0.60;0.60;;;10.40;99.90;;;;;;4964254;28;20466;-85
2023/01/11 00:37:29;;;;;;;0.50;0.50;;;10.50;99.90;;;;;;4973680;28;21978;-87
2023/01/11 00:40:14;;;;;;;1.37;0.50;;;10.40;99.90;;;;;;4978317;28;20451;-86
2023/01/11 00:48:56;;;;;;;2.10;0.70;;;10.60;99.90;;;;;;4954768;28;20960;-87
2023/01/11 00:51:26;;;;;;;0.60;0.60;;;10.70;99.90;;;;;;4980449;28;20487;-85
2023/01/11 00:53:57;;;;;;;0.73;0.73;;;10.60;99.90;;;;;;4984354;28;20925;-85
2023/01/11 00:56:28;;;;;;;0.77;0.60;;;10.70;99.90;;;;;;4967132;28;21703;-88
2023/01/11 00:59:07;;;;;;;0.60;0.60;;;10.70;99.90;;;;;;4984285;28;20466;-87
2023/01/11 01:02:00;;;;;;;0.50;0.50;;;10.70;99.90;;;;;;4984690;28;20459;-88
2023/01/11 01:04:42;;;;;;;0.80;0.60;;;10.70;99.90;;;;;;4967979;28;20521;-86
2023/01/11 01:07:15;;;;;;;0.53;0.53;;;10.80;99.90;;;;;;4987782;28;20512;-86
2023/01/11 01:09:51;;;;;;;0.80;0.60;;;10.90;99.90;;;;;;4974439;28;20469;-86
2023/01/11 01:15:54;;;;;;;0.80;0.80;;;10.90;99.90;;;;;;4991828;28;20510;-86
2023/01/11 01:18:35;;;;;;;0.70;0.70;;;11.00;99.90;;;;;;4954544;28;20481;-87
2023/01/11 01:21:03;;;;;;;2.13;0.70;;;11.00;99.90;;;;;;4932923;28;20461;-89
2023/01/11 01:23:37;;;;;;;0.63;0.63;;;11.00;99.90;;;;;;4973789;28;20463;-85
2023/01/11 01:26:11;;;;;;;0.50;0.50;;;10.90;99.90;;;;;;4969876;28;20498;-85
2023/01/11 01:28:49;;;;;;;0.80;0.60;;;10.80;99.90;;;;;;4984404;28;20462;-85
2023/01/11 01:31:27;;;;;;;0.40;0.40;;;10.90;99.90;;;;;;4987341;28;20533;-86
2023/01/11 01:34:07;;;;;;;0.63;0.50;;;11.00;99.90;;;;;;4988639;28;20458;-86
2023/01/11 01:36:39;;;;;;;0.40;0.30;;;10.90;99.90;;;;;;4986845;28;20981;-83
2023/01/11 01:39:14;;;;;;;0.70;0.50;;;10.90;99.90;;;;;;4983576;28;20469;-85
2023/01/11 01:41:41;;;;;;;0.80;0.40;;;10.90;99.90;;;;;;4987906;28;20455;-86
2023/01/11 01:44:50;;;;;;;1.57;0.87;;;10.90;99.90;;;;;;4986284;28;21711;-85
2023/01/11 01:47:29;;;;;;;0.40;0.40;;;11.00;99.90;;;;;;4984065;28;20478;-85
2023/01/11 01:50:23;;;;;;;0.30;0.30;;;11.10;99.90;;;;;;4988093;28;20526;-85
2023/01/11 01:53:21;;;;;;;0.50;0.40;;;11.00;99.90;;;;;;4985628;28;20597;-88
2023/01/11 01:56:10;;;;;;;0.50;0.30;;;11.00;99.90;;;;;;4986239;28;20473;-87
2023/01/11 01:58:52;;;;;;;0.60;0.40;;;11.00;99.90;;;;;;4984692;28;20450;-85
2023/01/11 02:01:47;;;;;;;0.83;0.40;;;11.00;99.90;;;;;;4980573;28;20521;-86
2023/01/11 02:04:34;;;;;;;0.40;0.40;;;11.10;99.90;;;;;;4984354;28;20467;-86
2023/01/11 02:07:17;;;;;;;0.40;0.40;;;11.10;99.90;;;;;;4981001;28;20479;-87
2023/01/11 02:10:13;;;;;;;1.13;0.50;;;11.10;99.90;;;;;;4964890;28;20836;-90
2023/01/11 02:12:57;;;;;;;0.37;0.33;;;11.10;99.90;;;;;;4977137;28;20466;-88
2023/01/11 02:15:31;;;;;;;0.40;0.30;;;11.00;99.90;;;;;;4980312;28;20482;-86
2023/01/11 02:18:00;;;;;;;0.73;0.40;;;11.10;99.90;;;;;;5001485;28;20479;-88
2023/01/11 02:20:42;;;;;;;0.83;0.40;;;11.00;99.90;;;;;;4995723;28;20546;-86
2023/01/11 02:23:46;;;;;;;0.40;0.40;;;11.10;99.90;;;;;;4967997;28;20542;-86
2023/01/11 02:26:27;;;;;;;0.37;0.30;;;11.20;99.90;;;;;;4967539;28;20494;-87
2023/01/11 02:29:19;;;;;;;3.03;0.67;;;11.20;99.90;;;;;;4985428;28;20470;-86
2023/01/11 02:32:13;;;;;;;0.30;0.30;;;11.20;99.90;;;;;;4984325;28;20451;-86
2023/01/11 02:35:00;;;;;;;0.40;0.40;;;11.10;99.90;;;;;;4982868;28;20541;-87
2023/01/11 02:37:54;;;;;;;0.90;0.40;;;11.20;99.90;;;;;;4942125;28;20474;-85
2023/01/11 02:40:54;;;;;;;0.50;0.47;;;11.20;99.90;;;;;;4964856;28;21735;-87
2023/01/11 02:46:42;;;;;;;0.43;0.43;;;11.20;99.90;;;;;;4980611;28;20491;-87
2023/01/11 02:49:17;;;;;;;0.77;0.50;;;11.10;99.90;;;;;;4984915;28;20850;-85
2023/01/11 02:51:58;;;;;;;0.30;0.30;;;11.20;99.90;;;;;;4985460;28;20493;-88
2023/01/11 02:54:26;;;;;;;0.40;0.30;;;11.20;99.90;;;;;;5000459;28;20463;-88
2023/01/11 02:56:59;;;;;;;1.20;0.50;;;11.20;99.90;;;;;;5001757;28;20476;-87
2023/01/11 02:59:31;;;;;;;0.97;0.60;;;11.20;99.90;;;;;;5003626;28;20709;-88
2023/01/11 03:02:01;;;;;;;0.50;0.50;;;11.20;99.90;;;;;;5001561;28;20451;-88
2023/01/11 03:04:33;;;;;;;0.40;0.40;;;11.30;99.90;;;;;;4995877;28;20459;-87
2023/01/11 03:07:12;;;;;;;0.50;0.50;;;11.20;99.90;;;;;;4983075;28;20459;-87
2023/01/11 03:10:02;;;;;;;0.40;0.40;;;11.20;99.90;;;;;;4983863;28;20446;-85
2023/01/11 03:13:08;;;;;;;0.83;0.50;;;11.30;99.90;;;;;;4973572;28;20546;-88
2023/01/11 03:16:05;;;;;;;1.90;0.40;;;11.30;99.90;;;;;;4984262;28;21004;-86
2023/01/11 03:18:50;;;;;;;2.70;0.43;;;11.30;99.90;;;;;;4933927;28;20920;-87
2023/01/11 03:21:48;;;;;;;0.40;0.40;;;11.30;99.90;;;;;;4972819;28;20470;-86
2023/01/11 03:28:17;;;;;;;0.90;0.40;;;11.10;99.90;;;;;;4987270;28;20497;-88
2023/01/11 03:30:51;;;;;;;0.43;0.40;;;11.10;99.90;;;;;;4986706;28;20493;-89
2023/01/11 03:33:31;;;;;;;0.50;0.50;;;11.10;99.90;;;;;;4974681;28;20491;-86
2023/01/11 03:36:12;;;;;;;0.60;0.60;;;11.10;99.90;;;;;;4986749;28;20562;-85
2023/01/11 03:39:03;;;;;;;0.50;0.50;;;11.00;99.90;;;;;;4986263;28;20459;-90
2023/01/11 03:41:37;;;;;;;0.50;0.50;;;11.10;99.90;;;;;;5004608;28;20522;-89
2023/01/11 03:44:08;;;;;;;0.50;0.40;;;11.10;99.90;;;;;;5006498;28;20463;-90
2023/01/11 03:46:50;;;;;;;0.50;0.50;;;11.10;99.90;;;;;;5005847;28;20538;-89
2023/01/11 03:49:50;;;;;;;0.47;0.47;;;11.10;99.90;;;;;;4997977;28;21022;-87
2023/01/11 03:52:24;;;;;;;0.70;0.50;;;11.00;99.90;;;;;;4991192;28;20462;-88
2023/01/11 03:54:57;;;;;;;0.83;0.63;;;11.00;99.90;;;;;;4986365;28;20483;-88
2023/01/11 03:57:33;;;;;;;0.40;0.40;;;11.00;99.90;;;;;;4987674;28;20562;-88
2023/01/11 04:00:09;;;;;;;0.63;0.50;;;11.10;99.90;;;;;;4987921;28;20462;-86
2023/01/11 04:02:41;;;;;;;0.47;0.47;;;11.20;99.90;;;;;;4985479;28;21986;-86
2023/01/11 04:05:09;;;;;;;1.13;0.40;;;11.20;99.90;;;;;;4987404;28;20484;-87
2023/01/11 04:07:38;;;;;;;0.87;0.50;;;11.10;99.90;;;;;;4969642;28;20475;-86
2023/01/11 04:10:06;;;;;;;0.40;0.40;;;11.30;99.90;;;;;;4979730;28;20455;-85
2023/01/11 04:12:33;;;;;;;0.80;0.50;;;11.30;99.90;;;;;;4985236;28;20451;-88
2023/01/11 04:15:04;;;;;;;0.87;0.50;;;11.40;99.90;;;;;;4985630;28;20471;-85
2023/01/11 04:17:44;;;;;;;1.27;0.50;;;11.40;99.90;;;;;;4969300;28;20450;-86
2023/01/11 04:20:13;;;;;;;0.77;0.57;;;11.40;99.90;;;;;;4984724;28;20463;-85
2023/01/11 04:22:42;;;;;;;0.53;0.53;;;11.40;99.90;;;;;;4984290;28;20482;-88
2023/01/11 04:25:08;;;;;;;0.50;0.43;;;11.40;99.90;;;;;;4982794;28;20470;-87
2023/01/11 04:27:39;;;;;;;0.50;0.40;;;11.40;99.90;;;;;;4987453;28;20989;-88
2023/01/11 04:30:09;;;;;;;0.87;0.50;;;11.40;99.90;;;;;;4971609;28;20471;-89
2023/01/11 04:32:38;;;;;;;0.80;0.40;;;11.40;99.90;;;;;;4983856;28;20459;-87
2023/01/11 04:35:06;;;;;;;0.50;0.50;;;11.40;99.90;;;;;;4983208;28;20495;-84
2023/01/11 04:37:35;;;;;;;0.60;0.60;;;11.40;99.90;;;;;;4985036;28;20496;-84
2023/01/11 04:40:04;;;;;;;0.77;0.53;;;11.50;99.90;;;;;;4967719;28;20470;-83
2023/01/11 04:42:31;;;;;;;0.80;0.60;;;11.50;99.90;;;;;;4980465;28;20569;-85
2023/01/11 04:45:05;;;;;;;0.57;0.40;;;11.50;99.90;;;;;;4966681;28;20456;-84
2023/01/11 04:47:32;;;;;;;1.27;0.53;;;11.50;99.90;;;;;;4983233;28;20568;-84
2023/01/11 04:50:01;;;;;;;0.70;0.70;;;11.50;99.90;;;;;;4985062;28;20467;-84
2023/01/11 04:52:30;;;;;;;0.63;0.50;;;11.50;99.90;;;;;;4968272;28;21550;-85
2023/01/11 04:54:57;;;;;;;0.60;0.60;;;11.50;99.90;;;;;;4968276;28;21017;-86
2023/01/11 04:57:27;;;;;;;0.50;0.40;;;11.40;99.90;;;;;;4987065;28;20491;-84
2023/01/11 04:59:54;;;;;;;1.23;0.40;;;11.50;99.90;;;;;;4987132;28;21020;-88
2023/01/11 05:02:21;;;;;;;0.50;0.50;;;11.50;99.90;;;;;;4985633;28;20462;-88
2023/01/11 05:04:48;;;;;;;0.60;0.40;;;11.60;99.90;;;;;;4986598;28;20451;-85
2023/01/11 05:07:18;;;;;;;0.80;0.50;;;11.70;99.90;;;;;;4985396;28;20806;-87
2023/01/11 05:09:45;;;;;;;0.60;0.40;;;11.80;99.90;;;;;;4978552;28;20554;-87
2023/01/11 05:12:12;;;;;;;0.47;0.47;;;11.80;99.90;;;;;;4995681;28;20498;-85
2023/01/11 05:14:38;;;;;;;0.40;0.33;;;11.80;99.90;;;;;;4987069;28;20636;-86
2023/01/11 05:17:15;;;;;;;0.40;0.40;;;11.90;99.90;;;;;;4994220;28;20565;-85
2023/01/11 05:19:45;;;;;;;1.60;0.63;;;11.80;99.90;;;;;;4994194;28;20478;-87
2023/01/11 05:22:12;;;;;;;1.70;0.60;;;11.60;99.90;;;;;;4991758;28;20451;-86
2023/01/11 05:24:46;;;;;;;0.70;0.57;;;11.80;99.90;;;;;;4987341;28;20446;-86
2023/01/11 05:27:13;;;;;;;1.00;0.57;;;12.00;99.90;;;;;;4989322;28;20517;-87
2023/01/11 05:29:40;;;;;;;0.70;0.50;;;12.00;99.90;;;;;;4988551;28;20557;-86
2023/01/11 05:32:07;;;;;;;0.70;0.47;;;12.10;99.90;;;;;;4990647;28;20511;-86
2023/01/11 05:34:40;;;;;;;0.70;0.50;;;12.10;99.90;;;;;;4988772;28;20566;-86
2023/01/11 05:37:07;;;;;;;1.90;0.50;;;12.10;99.90;;;;;;4972055;28;20518;-86
2023/01/11 05:39:33;;;;;;;0.73;0.40;;;12.10;99.90;;;;;;4990662;28;20447;-87
2023/01/11 05:42:00;;;;;;;1.33;0.40;;;12.10;99.90;;;;;;4996647;28;20447;-87
2023/01/11 05:47:13;;;;;;;0.37;0.37;;;12.10;99.90;;;;;;4990165;28;20494;-86
2023/01/11 05:49:39;;;;;;;0.40;0.30;;;12.10;99.90;;;;;;4989428;28;20468;-86
2023/01/11 05:52:06;;;;;;;1.57;0.60;;;12.10;99.90;;;;;;4973429;28;20463;-88
2023/01/11 05:54:33;;;;;;;0.40;0.40;;;12.10;99.90;;;;;;4987705;28;20525;-87
2023/01/11 05:57:00;;;;;;;0.40;0.30;;;12.10;99.90;;;;;;4988481;28;20561;-87
2023/01/11 05:59:27;;;;;;;1.23;0.30;;;12.00;99.90;;;;;;4972352;28;20471;-88
2023/01/11 06:01:57;;;;;;;1.67;0.80;;;12.10;99.90;;;;;;4986715;28;20494;-87
2023/01/11 06:04:24;;;;;;;0.40;0.40;;;12.10;99.90;;;;;;4992350;28;20451;-87
2023/01/11 06:06:54;;;;;;;2.30;0.40;;;12.00;99.90;;;;;;4999726;28;20483;-87
2023/01/11 06:09:21;;;;;;;0.70;0.40;;;12.00;99.90;;;;;;4999796;28;20459;-88
2023/01/11 06:11:49;;;;;;;0.90;0.50;;;12.00;99.90;;;;;;4972823;28;20459;-84
2023/01/11 06:14:16;;;;;;;1.03;0.93;;;12.20;99.90;;;;;;4993763;28;20502;-87
2023/01/11 06:16:43;;;;;;;1.37;0.40;;;12.20;99.90;;;;;;4998421;28;20740;-86
2023/01/11 06:19:16;;;;;;;2.40;1.03;;;12.10;99.90;;;;;;4998988;28;20469;-88
2023/01/11 06:21:45;;;;;;;2.20;0.70;;;12.20;99.90;;;;;;4974604;28;20533;-88
2023/01/11 06:24:16;;;;;;;0.40;0.40;;;12.20;99.90;;;;;;4990795;28;21928;-87
2023/01/11 06:26:44;;;;;;;0.93;0.70;;;12.20;99.90;;;;;;4990198;28;20490;-87
2023/01/11 06:29:11;;;;;;;2.33;0.70;;;12.20;99.90;;;;;;4973394;28;20752;-87
2023/01/11 06:31:40;;;;;;;0.90;0.80;;;12.20;99.90;;;;;;4977043;28;20535;-86
2023/01/11 06:34:07;;;;;;;3.77;1.20;;;11.90;99.90;;;;;;4990453;28;20483;-88
2023/01/11 06:36:38;;;;;;;0.90;0.70;;;11.90;99.90;;;;;;4975611;28;20510;-85
2023/01/11 06:39:04;;;;;;;0.40;0.40;;;12.20;99.90;;;;;;4974151;28;20852;-86
2023/01/11 06:41:31;;;;;;;0.70;0.60;;;12.20;99.90;;;;;;4985945;28;20522;-87
2023/01/11 06:43:58;;;;;;;2.43;0.70;;;12.40;99.90;;;;;;4985668;28;20470;-87
2023/01/11 06:46:27;;;;;;;0.90;0.60;;;12.40;99.90;;;;;;4985090;28;20602;-88
2023/01/11 06:48:56;;;;;;;1.03;0.60;;;12.20;99.90;;;;;;4985460;28;20472;-89
2023/01/11 06:51:23;;;;;;;1.00;0.90;;;12.40;99.90;;;;;;4988216;28;20550;-85
2023/01/11 06:53:50;;;;;;;2.70;0.90;;;12.30;99.90;;;;;;4971137;28;20512;-85
2023/01/11 06:56:20;;;;;;;1.27;0.80;;;12.20;99.90;;;;;;4986921;28;20485;-87
2023/01/11 06:58:47;;;;;;;2.10;1.07;;;12.40;99.90;;;;;;4985735;28;20463;-87
2023/01/11 07:01:28;;;;;;;2.83;1.30;;;12.50;99.90;;;;;;4987849;28;20491;-88
2023/01/11 07:03:55;;;;;;;1.43;1.00;;;12.50;99.90;;;;;;4986978;28;20474;-87
2023/01/11 07:06:23;;;;;;;1.47;0.90;;;12.30;99.90;;;;;;4969012;28;20537;-87
2023/01/11 07:08:52;;;;;;;1.17;0.67;;;12.00;99.90;;;;;;4968787;28;20861;-87
2023/01/11 07:11:19;;;;;;;0.80;0.80;;;12.40;99.90;;;;;;4991790;28;20546;-86
2023/01/11 07:13:46;;;;;;;1.57;1.20;;;12.40;99.90;;;;;;4989393;28;20494;-87
2023/01/11 07:16:16;;;;;;;1.93;1.07;;;12.40;99.90;;;;;;4992527;28;21057;-87
2023/01/11 07:18:43;;;;;;;1.17;0.70;;;12.40;99.90;;;;;;4991888;28;20492;-87
2023/01/11 07:21:12;;;;;;;1.47;0.90;;;12.50;99.90;;;;;;4990939;28;20490;-86
2023/01/11 07:23:41;;;;;;;2.47;0.97;;;12.50;99.90;;;;;;4993299;28;20467;-87
2023/01/11 07:26:08;;;;;;;2.10;1.53;;;12.40;99.90;;;;;;4977862;28;20498;-86
2023/01/11 07:28:37;;;;;;;1.70;0.93;;;12.40;99.90;;;;;;4978060;28;20573;-88
2023/01/11 07:31:04;;;;;;;1.57;1.00;;;12.40;99.90;;;;;;4987194;28;20981;-88
2023/01/11 07:33:32;;;;;;;3.20;1.80;;;12.30;99.90;;;;;;4987118;28;20483;-89
2023/01/11 07:35:59;;;;;;;1.77;1.30;;;12.10;99.90;;;;;;4999010;28;20479;-86
2023/01/11 07:38:29;;;;;;;2.50;1.20;;;12.20;99.90;;;;;;4991954;28;20465;-87
2023/01/11 07:40:58;;;;;;;2.30;1.50;;;12.40;99.90;;;;;;4991010;28;20475;-85
2023/01/11 07:43:26;;;;;;;3.40;1.30;;;12.30;99.90;;;;;;4995593;28;20463;-86
2023/01/11 07:45:56;;;;;;;3.23;1.13;;;12.20;99.90;;;;;;4998136;28;20573;-90
2023/01/11 07:48:25;;;;;;;1.13;0.90;;;12.20;99.90;;;;;;5004694;28;21800;-84
2023/01/11 07:50:53;;;;;;;2.93;0.93;;;12.30;99.90;;;;;;4990604;28;20522;-88
2023/01/11 07:53:25;;;;;;;1.60;1.10;;;12.10;99.90;;;;;;4991514;28;20470;-88
2023/01/11 07:55:55;;;;;;;1.57;0.83;;;12.00;99.90;;;;;;4988767;28;20506;-88
2023/01/11 07:58:24;;;;;;;2.63;1.00;;;12.20;99.90;;;;;;4981790;28;20467;-88
2023/01/11 08:00:51;;;;;;;2.60;1.23;;;12.10;99.90;;;;;;4969072;28;20463;-88
2023/01/11 08:03:30;;;;;;;0.70;0.70;;;12.10;99.90;;;;;;4970183;28;20478;-88
2023/01/11 08:06:01;;;;;;;0.70;0.70;;;12.40;99.90;;;;;;4984210;28;20540;-87
2023/01/11 08:08:28;;;;;;;2.20;0.70;;;12.60;99.90;;;;;;4979365;28;20451;-88
2023/01/11 08:16:29;;;;;;;0.90;0.70;;;12.50;99.90;;;;;;4997087;28;21083;-86
2023/01/11 08:18:58;;;;;;;0.90;0.83;;;12.70;99.90;;;;;;5003456;28;20459;-88
2023/01/11 08:21:27;;;;;;;1.60;1.00;;;12.80;99.90;;;;;;5005449;28;20463;-88
2023/01/11 08:23:55;;;;;;;2.20;1.27;;;12.80;99.90;;;;;;4998966;28;20455;-85
2023/01/11 08:26:23;;;;;;;1.83;1.30;;;12.90;99.90;;;;;;4998526;28;20571;-83
2023/01/11 08:28:51;;;;;;;1.33;1.20;;;12.90;99.90;;;;;;4983883;28;20451;-85
2023/01/11 08:31:19;;;;;;;1.73;0.93;;;12.90;99.90;;;;;;4967843;28;20877;-85
2023/01/11 08:33:47;;;;;;;0.80;0.80;;;12.80;99.90;;;;;;4977535;28;20486;-85
2023/01/11 08:36:14;;;;;;;2.53;0.70;;;12.70;99.90;;;;;;4991067;28;20569;-87
2023/01/11 08:38:41;;;;;;;3.47;1.40;;;12.70;99.90;;;;;;4971665;28;20581;-88
2023/01/11 08:41:10;;;;;;;0.87;0.50;;;12.70;99.90;;;;;;4987306;28;20469;-87
2023/01/11 08:43:38;;;;;;;2.57;0.80;;;12.70;99.90;;;;;;4991421;28;20458;-85
2023/01/11 08:46:05;;;;;;;1.37;0.83;;;12.70;99.90;;;;;;4998844;28;20471;-87
2023/01/11 08:48:32;;;;;;;1.10;0.80;;;12.70;99.90;;;;;;4997117;28;20869;-87
2023/01/11 08:50:59;;;;;;;2.73;0.90;;;12.50;99.90;;;;;;4991374;28;20490;-87
2023/01/11 08:53:26;;;;;;;2.10;1.23;;;12.20;99.90;;;;;;4989089;28;20529;-86
2023/01/11 08:55:53;;;;;;;5.27;4.10;;;12.10;99.90;;;;;;4989386;28;20525;-88
2023/01/11 08:58:20;;;;;;;1.73;1.43;;;12.00;99.90;;;;;;4970952;28;20454;-89
2023/01/11 09:00:47;;;;;;;2.73;0.90;;;12.10;99.90;;;;;;4994016;28;20467;-88
2023/01/11 09:03:14;;;;;;;1.73;1.20;;;12.10;99.90;;;;;;4988160;28;20839;-86
2023/01/11 09:05:41;;;;;;;1.30;0.80;;;12.10;99.90;;;;;;4994173;28;20844;-87
2023/01/11 09:08:08;;;;;;;0.60;0.60;;;12.30;99.90;;;;;;4977887;28;21145;-85
2023/01/11 09:10:36;;;;;;;0.83;0.70;;;12.40;99.90;;;;;;4997474;28;20460;-87
2023/01/11 09:13:03;;;;;;;1.53;0.80;;;12.50;99.90;;;;;;4974801;28;20466;-87
2023/01/11 09:15:33;;;;;;;1.33;0.90;;;12.50;99.90;;;;;;4998434;28;20493;-88
2023/01/11 09:18:02;;;;;;;1.40;1.30;;;12.20;99.90;;;;;;4986821;28;20470;-86
2023/01/11 09:20:30;;;;;;;3.87;3.53;;;12.10;99.90;;;;;;5002648;28;20530;-86
2023/01/11 09:22:59;;;;;;;1.07;0.80;;;12.00;99.90;;;;;;4981301;28;20455;-88
2023/01/11 09:25:29;;;;;;;0.93;0.80;;;12.10;99.90;;;;;;4996110;28;20462;-85
2023/01/11 09:27:59;;;;;;;3.00;1.50;;;12.30;99.90;;;;;;4988370;28;20459;-86
2023/01/11 09:30:27;;;;;;;3.17;0.90;;;12.20;99.90;;;;;;4979212;28;20466;-87
2023/01/11 09:32:55;;;;;;;1.30;1.20;;;12.20;99.90;;;;;;4983131;28;20494;-86
2023/01/11 09:35:21;;;;;;;5.13;1.40;;;12.10;99.90;;;;;;4978175;28;20552;-86
2023/01/11 09:37:57;;;;;;;3.30;1.13;;;12.10;99.90;;;;;;4995680;28;20460;-89
2023/01/11 09:41:00;;;;;;;5.90;1.60;;;12.00;99.90;;;;;;4996284;28;20449;-85
2023/01/11 09:43:44;;;;;;;4.90;1.80;;;12.20;99.90;;;;;;4999054;28;20439;-84
2023/01/11 09:46:26;;;;;;;4.97;1.53;;;12.00;99.90;;;;;;4982177;28;20475;-87
2023/01/11 09:49:24;;;;;;;5.63;2.03;;;12.00;99.90;;;;;;4978867;28;20459;-86
2023/01/11 09:52:27;;;;;;;3.83;2.03;;;12.00;99.90;;;;;;4985487;28;20446;-85
2023/01/11 09:55:14;;;;;;;7.47;3.47;;;11.90;99.90;;;;;;5487758;23;20497;-88
2023/01/11 09:58:03;;;;;;;2.37;1.70;;;12.00;99.90;;;;;;5057084;28;20533;-87
2023/01/11 10:01:09;;;;;;;3.83;2.27;;;12.00;99.90;;;;;;5045310;28;20442;-90
2023/01/11 10:04:32;;;;;;;6.47;2.07;;;11.90;99.90;;;;;;4992019;28;20468;-86
2023/01/11 10:07:36;;;;;;;4.73;2.00;;;11.90;99.90;;;;;;5052701;28;20512;-87
2023/01/11 10:10:22;;;;;;;5.37;2.17;;;11.90;99.90;;;;;;5039621;28;20444;-87
2023/01/11 10:13:37;;;;;;;5.50;2.70;;;11.90;99.90;;;;;;5038524;28;21137;-85
2023/01/11 10:16:34;;;;;;;6.97;2.23;;;11.90;99.90;;;;;;5054079;28;20513;-88
2023/01/11 10:19:38;;;;;;;5.93;4.53;;;11.90;99.90;;;;;;5027973;28;21371;-86
2023/01/11 10:22:26;;;;;;;5.17;1.87;;;11.80;99.90;;;;;;5018115;28;20464;-86
2023/01/11 10:25:20;;;;;;;5.53;2.00;;;11.80;99.90;;;;;;5023078;28;20546;-85
2023/01/11 10:28:00;;;;;;;4.47;2.60;;;11.80;99.90;;;;;;5033355;28;20444;-88
2023/01/11 10:34:00;;;;;;;6.70;2.30;;;11.80;99.90;;;;;;5035251;28;20450;-86
2023/01/11 10:42:32;;;;;;;7.00;3.00;;;11.80;99.90;;;;;;5033687;28;20462;-86
2023/01/11 10:45:11;;;;;;;9.20;2.83;;;11.90;99.90;;;;;;5030073;28;20460;-86
2023/01/11 10:48:00;;;;;;;8.37;2.83;;;11.80;99.90;;;;;;5042819;28;20474;-87
2023/01/11 10:50:45;;;;;;;8.00;2.60;;;11.80;99.90;;;;;;5045839;28;20452;-88
2023/01/11 10:53:28;;;;;;;4.13;2.87;;;11.90;99.90;;;;;;5047493;28;20509;-86
2023/01/11 10:56:23;;;;;;;6.20;3.00;;;11.90;99.90;;;;;;5046089;28;20587;-87
2023/01/11 10:59:29;;;;;;;5.80;2.93;;;11.90;99.90;;;;;;5044071;28;20469;-86
2023/01/11 11:02:11;;;;;;;6.33;2.57;;;11.90;99.90;;;;;;5049305;28;20460;-87
2023/01/11 11:05:16;;;;;;;7.00;3.00;;;11.90;99.90;;;;;;5050148;28;20440;-86
2023/01/11 11:07:58;;;;;;;12.50;2.47;;;12.00;99.90;;;;;;5046833;28;20464;-88
2023/01/11 11:10:35;;;;;;;12.37;3.37;;;12.00;99.90;;;;;;5044071;28;20459;-90
2023/01/11 11:13:26;;;;;;;7.23;2.97;;;12.00;99.90;;;;;;5039521;28;20460;-88
2023/01/11 11:16:02;;;;;;;5.23;2.60;;;12.00;99.90;;;;;;5036610;28;20476;-86
2023/01/11 11:18:37;;;;;;;7.30;2.57;;;12.00;99.90;;;;;;5040077;28;20476;-89
2023/01/11 11:21:21;;;;;;;10.43;4.47;;;11.90;99.90;;;;;;5042736;28;21835;-87
2023/01/11 11:23:55;;;;;;;6.90;3.50;;;11.90;99.90;;;;;;5027971;28;20444;-86
2023/01/11 11:26:26;;;;;;;4.23;2.67;;;11.90;99.90;;;;;;5038423;28;21540;-87
2023/01/11 11:29:06;;;;;;;7.07;2.43;;;11.90;99.90;;;;;;5043664;28;20526;-89
2023/01/11 11:31:37;;;;;;;5.47;2.37;;;11.90;99.90;;;;;;5031116;28;20962;-87
2023/01/11 11:34:44;;;;;;;6.90;3.10;;;11.90;99.90;;;;;;5024218;28;20459;-88
2023/01/11 11:37:19;;;;;;;10.63;2.80;;;11.90;99.90;;;;;;5044886;28;20481;-87
2023/01/11 11:39:49;;;;;;;6.80;2.80;;;11.90;99.90;;;;;;5038424;28;20547;-88
2023/01/11 11:42:20;;;;;;;7.60;2.90;;;11.90;99.90;;;;;;5026530;28;20500;-88
2023/01/11 11:45:19;;;;;;;6.10;2.40;;;11.80;99.90;;;;;;5041193;28;20462;-87
2023/01/11 11:48:08;;;;;;;5.57;2.40;;;11.80;99.90;;;;;;5027075;28;20453;-87
2023/01/11 11:50:40;;;;;;;8.70;3.33;;;11.80;99.90;;;;;;5028560;28;20449;-86
2023/01/11 11:53:25;;;;;;;10.20;3.27;;;11.70;99.90;;;;;;5025705;28;20455;-87
2023/01/11 11:55:58;;;;;;;6.50;2.30;;;11.70;99.90;;;;;;5030833;28;21144;-88
2023/01/11 11:58:30;;;;;;;10.63;2.90;;;11.80;99.90;;;;;;5042468;28;20507;-87
2023/01/11 12:01:07;;;;;;;9.27;2.80;;;11.70;99.90;;;;;;5045548;28;20478;-85
2023/01/11 12:03:42;;;;;;;11.90;2.93;;;11.70;99.90;;;;;;5022748;28;20481;-86
2023/01/11 12:06:26;;;;;;;6.17;2.57;;;11.70;99.90;;;;;;5032287;28;20480;-86
2023/01/11 12:09:01;;;;;;;7.80;2.37;;;11.70;99.90;;;;;;5027470;28;20456;-85
2023/01/11 12:11:49;;;;;;;9.20;2.07;;;11.60;99.90;;;;;;5045515;28;20452;-88
2023/01/11 12:14:34;;;;;;;4.80;2.30;;;11.60;99.90;;;;;;5031419;28;20492;-89
2023/01/11 12:17:23;;;;;;;3.87;1.83;;;11.60;99.90;;;;;;5029282;28;20483;-87
2023/01/11 12:19:54;;;;;;;7.30;2.13;;;11.60;99.90;;;;;;5039055;28;20472;-85
2023/01/11 12:22:27;;;;;;;5.90;2.13;;;11.60;99.90;;;;;;5044267;28;20539;-86
2023/01/11 12:25:13;;;;;;;9.03;2.90;;;11.60;99.90;;;;;;5028368;28;20445;-86
2023/01/11 12:28:01;;;;;;;5.63;1.60;;;11.60;99.90;;;;;;5023668;28;20477;-88
2023/01/11 12:30:45;;;;;;;7.60;2.40;;;11.60;99.90;;;;;;5030804;28;20475;-89
2023/01/11 12:33:55;;;;;;;7.60;2.03;;;11.70;99.90;;;;;;5045471;28;20512;-88
2023/01/11 12:37:00;;;;;;;5.50;3.17;;;11.70;99.90;;;;;;5007842;28;21213;-86
2023/01/11 12:39:57;;;;;;;8.57;3.30;;;11.80;99.90;;;;;;5026735;28;20470;-88
2023/01/11 12:42:33;;;;;;;5.87;2.00;;;11.80;99.90;;;;;;5032296;28;20490;-85
2023/01/11 12:45:33;;;;;;;8.27;2.37;;;11.80;99.90;;;;;;5041567;28;20453;-87
2023/01/11 12:48:31;;;;;;;13.60;2.20;;;11.80;99.90;;;;;;5023045;28;20464;-88
2023/01/11 12:51:29;;;;;;;9.80;2.33;;;12.00;99.90;;;;;;5033555;28;20523;-85
2023/01/11 12:54:25;;;;;;;7.67;2.43;;;11.80;99.90;;;;;;5033376;28;20516;-85
2023/01/11 12:57:53;;;;;;;6.60;3.03;;;11.80;99.90;;;;;;5032432;28;20615;-88
2023/01/11 13:00:44;;;;;;;9.67;2.53;;;11.70;99.90;;;;;;4988679;28;20544;-86
2023/01/11 13:03:46;;;;;;;9.17;3.03;;;11.80;99.90;;;;;;4976283;28;20554;-87
2023/01/11 13:10:09;;;;;;;11.83;3.33;;;11.80;99.90;;;;;;5012652;28;20491;-87
2023/01/11 13:12:54;;;;;;;11.83;2.30;;;11.80;99.90;;;;;;5050216;28;21016;-86
2023/01/11 13:15:42;;;;;;;10.57;2.60;;;11.90;99.90;;;;;;5036117;28;20610;-85
2023/01/11 13:18:30;;;;;;;7.97;2.47;;;11.90;99.90;;;;;;5049720;28;20480;-84
2023/01/11 13:21:08;;;;;;;8.00;2.50;;;12.10;99.90;;;;;;5034096;28;20513;-86
2023/01/11 13:23:47;;;;;;;7.30;2.37;;;12.20;99.30;;;;;;5043639;28;20550;-87
2023/01/11 13:26:22;;;;;;;8.70;2.30;;;12.00;98.90;;;;;;5045914;28;20554;-85
2023/01/11 13:29:02;;;;;;;5.83;2.20;;;12.00;98.80;;;;;;5043861;28;20471;-86
2023/01/11 13:31:38;;;;;;;5.30;2.10;;;12.00;98.80;;;;;;5029674;28;20462;-88
2023/01/11 13:34:38;;;;;;;9.90;2.50;;;12.00;98.70;;;;;;5041359;28;20461;-87
2023/01/11 13:37:29;;;;;;;10.97;3.50;;;12.00;98.20;;;;;;5032897;28;20481;-85
2023/01/11 13:40:19;;;;;;;5.30;2.20;;;12.00;97.90;;;;;;5045065;28;20451;-86
2023/01/11 13:43:03;;;;;;;8.40;2.10;;;12.00;97.80;;;;;;5038660;28;20469;-90
2023/01/11 13:45:42;;;;;;;8.23;2.47;;;12.10;97.70;;;;;;5045672;28;20428;-88
2023/01/11 13:48:36;;;;;;;8.67;2.30;;;12.10;97.20;;;;;;5049525;28;20480;-88
2023/01/11 13:51:27;;;;;;;7.27;2.47;;;12.10;96.70;;;;;;5041631;28;20455;-86
2023/01/11 13:54:10;;;;;;;7.27;2.10;;;12.10;96.40;;;;;;5034555;28;20466;-87
2023/01/11 13:56:53;;;;;;;7.73;2.33;;;12.10;96.50;;;;;;5048609;28;20582;-87
2023/01/11 13:59:40;;;;;;;12.93;2.70;;;12.10;96.50;;;;;;5034986;28;20456;-85
2023/01/11 14:02:16;;;;;;;5.33;2.17;;;12.10;96.40;;;;;;5034314;28;20959;-86
2023/01/11 14:05:09;;;;;;;9.27;2.80;;;12.30;96.40;;;;;;5028558;28;20479;-87
2023/01/11 14:07:59;;;;;;;8.30;2.40;;;12.30;96.00;;;;;;5049093;28;21022;-87
2023/01/11 14:10:56;;;;;;;7.57;3.23;;;12.20;95.60;;;;;;5059028;28;20480;-87
2023/01/11 14:17:08;;;;;;;5.93;2.53;;;12.20;96.00;;;;;;5053969;28;20486;-88
2023/01/11 14:19:58;;;;;;;6.53;2.23;;;12.20;96.00;;;;;;5053632;28;20465;-86
2023/01/11 14:22:49;;;;;;;10.47;2.33;;;12.30;96.30;;;;;;5038191;28;20461;-86
2023/01/11 14:25:26;;;;;;;5.57;2.20;;;12.20;96.20;;;;;;5055474;28;20471;-88
2023/01/11 14:28:12;;;;;;;6.50;2.03;;;12.10;96.20;;;;;;5042543;28;20818;-88
2023/01/11 14:31:33;;;;;;;10.13;2.80;;;12.20;96.30;;;;;;5063790;28;20444;-88